Redington Shores, Florida
Current Conditions -  °F | °C
As of 2:53 AM on Saturday 25 Oct 2014 (Local Time) from KPIE Reporting Station
Clear Clear  
Wind Chill: 68°   Ceiling: Unl
Heat Index: 68°   Visibility: 10mi
Dew Point: 59°   Wind: 9mph
Humidity: 73%   Direction: 20°NNE
Pressure: 29.97"   Gusts: NA
Location:  27.8164°N, 82.7802°W
Report Text: KPIE 250653Z AUTO 02008KT 10SM CLR 20/15 A2997 RMK AO2 SLP148 T02000150
Loading
Personal Weather Stations






























Interactive Weather Map
Tropical Storm Tracking
New forecast layout! Learn more

10-Day Weather Forecast

Advertisements
Track Severe Weather on mobile